createdAt,value
2023-03-26T00:00:51.856Z,99567.94
2023-03-26T00:03:18.303Z,99570.44
2023-03-26T00:05:45.933Z,99574.16
2023-03-26T00:08:12.384Z,99576.25
2023-03-26T00:10:40.451Z,99577.88
2023-03-26T00:13:08.247Z,99579.94
2023-03-26T00:15:36.556Z,99587.25
2023-03-26T00:18:03.287Z,99589.03
2023-03-26T00:20:30.956Z,99595.88
2023-03-26T00:22:57.285Z,99590.03
2023-03-26T00:25:23.779Z,99597.47
2023-03-26T00:27:50.585Z,99599.25
2023-03-26T00:30:17.103Z,99595.22
2023-03-26T00:32:43.913Z,99613.34
2023-03-26T00:35:20.322Z,99612.75
2023-03-26T00:37:46.738Z,99615.00
2023-03-26T00:40:13.414Z,99610.28
2023-03-26T00:42:39.750Z,99608.59
2023-03-26T00:45:07.176Z,99612.91
2023-03-26T00:47:34.515Z,99615.53
2023-03-26T00:50:00.913Z,99615.59
2023-03-26T00:52:27.309Z,99611.38
2023-03-26T00:54:54.732Z,99610.19
2023-03-26T00:57:32.984Z,99612.19
2023-03-26T01:00:01.815Z,99615.59
2023-03-26T01:02:28.231Z,99617.31
2023-03-26T01:04:58.118Z,99616.63
2023-03-26T01:07:26.607Z,99616.84
2023-03-26T01:09:53.909Z,99619.69
2023-03-26T01:12:23.059Z,99615.81
2023-03-26T01:14:52.089Z,99614.53
2023-03-26T01:17:18.612Z,99617.38
2023-03-26T01:20:09.693Z,99609.88
2023-03-26T01:22:36.785Z,99615.59
2023-03-26T01:25:03.742Z,99614.00
2023-03-26T01:27:36.987Z,99614.81
2023-03-26T01:30:23.665Z,99613.50
2023-03-26T01:33:22.345Z,99605.38
2023-03-26T01:36:10.082Z,99610.78
2023-03-26T01:38:45.209Z,99610.72
2023-03-26T01:41:23.311Z,99598.00
2023-03-26T01:44:15.955Z,99604.81
2023-03-26T01:46:43.401Z,99605.13
2023-03-26T01:49:09.806Z,99598.72
2023-03-26T01:51:36.220Z,99592.03
2023-03-26T01:54:06.051Z,99594.44
2023-03-26T01:56:59.553Z,99593.91
2023-03-26T01:59:52.571Z,99595.09
2023-03-26T02:02:26.564Z,99588.25
2023-03-26T02:05:12.144Z,99584.59
2023-03-26T02:07:41.444Z,99574.63
2023-03-26T02:10:15.641Z,99590.91
2023-03-26T02:12:44.145Z,99588.59
2023-03-26T02:15:11.954Z,99582.09
2023-03-26T02:17:38.801Z,99571.88
2023-03-26T02:20:09.437Z,99577.13
2023-03-26T02:22:39.610Z,99575.69
2023-03-26T02:25:08.454Z,99572.59
2023-03-26T02:27:35.673Z,99565.31
2023-03-26T02:30:02.592Z,99565.69
2023-03-26T02:32:29.363Z,99561.16
2023-03-26T02:34:55.874Z,99560.28
2023-03-26T02:37:22.210Z,99557.31
2023-03-26T02:39:48.537Z,99549.69
2023-03-26T02:42:14.894Z,99545.81
2023-03-26T02:44:41.239Z,99547.19
2023-03-26T02:47:07.758Z,99547.78
2023-03-26T02:49:34.136Z,99547.34
2023-03-26T02:52:01.009Z,99544.94
2023-03-26T02:54:27.319Z,99541.00
2023-03-26T02:56:53.698Z,99547.84
2023-03-26T02:59:20.023Z,99546.97
2023-03-26T03:01:46.344Z,99549.09
2023-03-26T03:04:13.157Z,99549.88
2023-03-26T03:06:40.657Z,99538.72
2023-03-26T03:09:08.146Z,99537.91
2023-03-26T03:11:35.044Z,99543.13
2023-03-26T03:14:01.403Z,99541.72
2023-03-26T03:16:27.826Z,99535.72
2023-03-26T03:18:54.901Z,99535.22
2023-03-26T03:21:25.398Z,99530.16
2023-03-26T03:23:51.822Z,99529.03
2023-03-26T03:26:21.054Z,99530.78
2023-03-26T03:28:49.060Z,99524.47
2023-03-26T03:31:17.009Z,99522.81
2023-03-26T03:33:44.324Z,99526.03
2023-03-26T03:36:20.491Z,99519.19
2023-03-26T03:38:48.634Z,99519.81
2023-03-26T03:41:15.209Z,99517.31
2023-03-26T03:43:41.514Z,99512.00
2023-03-26T03:46:07.874Z,99505.81
2023-03-26T03:48:34.223Z,99510.38
2023-03-26T03:51:00.527Z,99520.03
2023-03-26T03:53:26.867Z,99513.13
2023-03-26T03:55:54.631Z,99514.41
2023-03-26T03:58:26.249Z,99516.13
2023-03-26T04:00:52.847Z,99512.41
2023-03-26T04:03:20.009Z,99514.63
2023-03-26T04:06:00.242Z,99508.72
2023-03-26T04:08:26.553Z,99508.03
2023-03-26T04:10:52.898Z,99508.03
2023-03-26T04:13:19.220Z,99506.22
2023-03-26T04:15:45.579Z,99510.81
2023-03-26T04:18:11.916Z,99505.00
2023-03-26T04:20:40.519Z,99507.44
2023-03-26T04:23:06.878Z,99506.22
2023-03-26T04:25:34.122Z,99503.63
2023-03-26T04:28:06.625Z,99501.72
2023-03-26T04:30:34.625Z,99499.25
2023-03-26T04:33:04.092Z,99495.59
2023-03-26T04:35:33.972Z,99497.72
2023-03-26T04:38:04.425Z,99489.22
2023-03-26T04:40:30.808Z,99495.13
2023-03-26T04:42:57.141Z,99486.59
2023-03-26T04:45:23.867Z,99488.78
2023-03-26T04:47:50.855Z,99491.19
2023-03-26T04:50:17.570Z,99490.91
2023-03-26T04:52:45.333Z,99482.00
2023-03-26T04:55:21.478Z,99480.91
2023-03-26T04:57:53.424Z,99483.31
2023-03-26T05:00:19.925Z,99483.63
2023-03-26T05:02:46.522Z,99480.31
2023-03-26T05:05:12.836Z,99482.81
2023-03-26T05:07:39.137Z,99477.03
2023-03-26T05:10:06.013Z,99475.81
2023-03-26T05:12:32.345Z,99466.22
2023-03-26T05:14:58.710Z,99461.81
2023-03-26T05:17:25.978Z,99457.13
2023-03-26T05:19:52.408Z,99466.00
2023-03-26T05:22:19.317Z,99455.53
2023-03-26T05:24:45.676Z,99460.41
2023-03-26T05:27:15.910Z,99452.41
2023-03-26T05:29:42.815Z,99453.44
2023-03-26T05:32:10.053Z,99450.31
2023-03-26T05:34:36.394Z,99449.13
2023-03-26T05:37:04.082Z,99448.72
2023-03-26T05:39:30.375Z,99443.81
2023-03-26T05:41:56.688Z,99449.53
2023-03-26T05:44:22.991Z,99451.72
2023-03-26T05:46:49.315Z,99449.72
2023-03-26T05:49:15.629Z,99445.22
2023-03-26T05:51:41.983Z,99446.81
2023-03-26T05:54:08.289Z,99432.41
2023-03-26T05:56:34.701Z,99438.81
2023-03-26T05:59:01.135Z,99439.38
2023-03-26T06:01:27.470Z,99434.19
2023-03-26T06:03:53.902Z,99429.78
2023-03-26T06:06:20.926Z,99426.78
2023-03-26T06:09:02.594Z,99428.13
2023-03-26T06:11:30.454Z,99423.22
2023-03-26T06:13:56.853Z,99416.91
2023-03-26T06:16:27.161Z,99412.91
2023-03-26T06:18:57.384Z,99400.69
2023-03-26T06:21:25.614Z,99404.88
2023-03-26T06:23:52.742Z,99412.38
2023-03-26T06:26:19.312Z,99407.47
2023-03-26T06:28:45.618Z,99400.66
2023-03-26T06:31:12.048Z,99402.25
2023-03-26T06:33:38.529Z,99399.63
2023-03-26T06:36:05.489Z,99399.56
2023-03-26T06:38:31.936Z,99400.28
2023-03-26T06:41:05.711Z,99396.59
2023-03-26T06:43:32.162Z,99397.88
2023-03-26T06:45:58.508Z,99393.94
2023-03-26T06:48:24.818Z,99395.56
2023-03-26T06:50:51.392Z,99395.28
2023-03-26T06:53:18.020Z,99401.47
2023-03-26T06:55:44.485Z,99393.84
2023-03-26T06:58:12.127Z,99394.41
2023-03-26T07:00:38.901Z,99394.91
2023-03-26T07:03:06.008Z,99391.31
2023-03-26T07:05:32.376Z,99388.34
2023-03-26T07:07:58.707Z,99380.63
2023-03-26T07:10:25.350Z,99386.22
2023-03-26T07:12:53.230Z,99380.81
2023-03-26T07:15:20.046Z,99381.94
2023-03-26T07:17:46.766Z,99374.47
2023-03-26T07:20:13.181Z,99374.13
2023-03-26T07:22:39.920Z,99367.28
2023-03-26T07:25:07.141Z,99371.31
2023-03-26T07:27:40.838Z,99355.38
2023-03-26T07:30:20.156Z,99365.56
2023-03-26T07:33:06.149Z,99357.72
2023-03-26T07:35:41.376Z,99358.38
2023-03-26T07:38:37.072Z,99354.88
2023-03-26T07:41:12.445Z,99354.69
2023-03-26T07:44:03.100Z,99354.34
2023-03-26T07:46:31.672Z,99361.19
2023-03-26T07:48:58.689Z,99358.69
2023-03-26T07:51:25.806Z,99345.72
2023-03-26T07:53:52.568Z,99348.44
2023-03-26T07:56:37.713Z,99348.25
2023-03-26T07:59:27.553Z,99347.47
2023-03-26T08:02:32.327Z,99348.03
2023-03-26T08:05:20.131Z,99345.88
2023-03-26T08:08:00.855Z,99345.94
2023-03-26T08:10:37.112Z,99343.91
2023-03-26T08:13:26.579Z,99343.91
2023-03-26T08:16:14.038Z,99347.38
2023-03-26T08:18:59.310Z,99337.69
2023-03-26T08:21:30.368Z,99340.44
2023-03-26T08:24:13.501Z,99336.84
2023-03-26T08:26:55.844Z,99333.66
2023-03-26T08:29:29.512Z,99334.56
2023-03-26T08:31:56.303Z,99333.25
2023-03-26T08:34:23.065Z,99333.94
2023-03-26T08:36:49.394Z,99334.72
2023-03-26T08:39:15.702Z,99334.84
2023-03-26T08:42:09.735Z,99336.19
2023-03-26T08:45:25.393Z,99332.09
2023-03-26T08:48:19.432Z,99334.50
2023-03-26T08:51:17.542Z,99329.16
2023-03-26T08:53:56.619Z,99326.56
2023-03-26T08:56:31.800Z,99328.56
2023-03-26T08:59:25.262Z,99329.88
2023-03-26T09:02:25.752Z,99324.44
2023-03-26T09:05:12.024Z,99318.81
2023-03-26T09:08:00.154Z,99312.41
2023-03-26T09:10:38.779Z,99319.41
2023-03-26T09:13:35.787Z,99315.78
2023-03-26T09:16:43.147Z,99306.56
2023-03-26T09:19:34.108Z,99304.63
2023-03-26T09:22:12.222Z,99301.72
2023-03-26T09:24:38.476Z,99306.88
2023-03-26T09:27:18.790Z,99305.13
2023-03-26T09:30:20.888Z,99300.94
2023-03-26T09:33:11.650Z,99298.50
2023-03-26T09:36:05.768Z,99299.47
2023-03-26T09:38:53.607Z,99291.63
2023-03-26T09:41:35.336Z,99289.16
2023-03-26T09:44:35.993Z,99289.00
2023-03-26T09:47:36.654Z,99289.03
2023-03-26T09:50:42.785Z,99286.75
2023-03-26T09:53:23.635Z,99289.97
2023-03-26T09:56:08.840Z,99287.88
2023-03-26T09:58:48.304Z,99291.59
2023-03-26T10:01:24.730Z,99283.91
2023-03-26T10:04:06.381Z,99288.53
2023-03-26T10:06:41.782Z,99282.97
2023-03-26T10:09:19.614Z,99281.28
2023-03-26T10:12:02.433Z,99279.28
2023-03-26T10:14:41.134Z,99270.19
2023-03-26T10:17:31.904Z,99280.41
2023-03-26T10:20:04.092Z,99278.00
2023-03-26T10:22:39.255Z,99282.97
2023-03-26T10:25:23.552Z,99287.41
2023-03-26T10:28:27.061Z,99274.69
2023-03-26T10:31:17.350Z,99280.06
2023-03-26T10:34:05.003Z,99278.44
2023-03-26T10:36:35.596Z,99273.28
2023-03-26T10:39:07.761Z,99271.34
2023-03-26T10:41:55.932Z,99272.91
2023-03-26T10:44:43.897Z,99275.00
2023-03-26T10:47:25.362Z,99269.56
2023-03-26T10:49:59.568Z,99269.72
2023-03-26T10:52:34.786Z,99271.03
2023-03-26T10:55:18.281Z,99272.19
2023-03-26T10:57:50.657Z,99270.63
2023-03-26T11:00:21.485Z,99273.41
2023-03-26T11:03:25.292Z,99274.03
2023-03-26T11:06:30.389Z,99263.78
2023-03-26T11:09:10.777Z,99268.00
2023-03-26T11:11:53.359Z,99266.25
2023-03-26T11:14:34.848Z,99261.75
2023-03-26T11:17:39.612Z,99265.09
2023-03-26T11:20:13.240Z,99262.22
2023-03-26T11:22:54.162Z,99255.81
2023-03-26T11:25:29.809Z,99268.13
2023-03-26T11:28:29.820Z,99260.31
2023-03-26T11:31:08.567Z,99266.69
2023-03-26T11:33:45.351Z,99265.91
2023-03-26T11:36:43.300Z,99257.13
2023-03-26T11:39:13.719Z,99261.88
2023-03-26T11:41:40.056Z,99252.00
2023-03-26T11:44:22.303Z,99261.28
2023-03-26T11:46:52.329Z,99259.91
2023-03-26T11:49:21.987Z,99248.16
2023-03-26T11:51:48.861Z,99252.34
2023-03-26T11:54:15.288Z,99255.28
2023-03-26T11:57:05.355Z,99244.63
2023-03-26T11:59:55.790Z,99256.25
2023-03-26T12:02:28.054Z,99249.25
2023-03-26T12:05:08.080Z,99251.03
2023-03-26T12:07:35.383Z,99241.13
2023-03-26T12:10:17.864Z,99245.19
2023-03-26T12:12:47.498Z,99247.22
2023-03-26T12:15:16.026Z,99247.72
2023-03-26T12:17:42.689Z,99241.03
2023-03-26T12:20:24.541Z,99253.91
2023-03-26T12:23:33.530Z,99243.25
2023-03-26T12:26:11.790Z,99245.97
2023-03-26T12:28:44.820Z,99241.97
2023-03-26T12:31:12.940Z,99254.50
2023-03-26T12:33:39.456Z,99249.25
2023-03-26T12:36:21.012Z,99246.59
2023-03-26T12:40:06.536Z,99250.81
2023-03-26T12:42:36.727Z,99245.13
2023-03-26T12:44:48.226Z,99259.25
2023-03-26T12:48:01.409Z,99244.06
2023-03-26T12:50:14.326Z,99253.53
2023-03-26T12:52:56.064Z,99247.03
2023-03-26T12:55:52.969Z,99249.88
2023-03-26T12:58:33.972Z,99253.03
2023-03-26T13:01:14.046Z,99247.97
2023-03-26T13:04:10.182Z,99254.50
2023-03-26T13:06:59.072Z,99243.75
2023-03-26T13:10:02.161Z,99246.59
2023-03-26T13:12:52.700Z,99251.66
2023-03-26T13:15:30.050Z,99250.31
2023-03-26T13:18:24.834Z,99252.97
2023-03-26T13:21:00.866Z,99251.28
2023-03-26T13:23:43.778Z,99248.59
2023-03-26T13:26:17.884Z,99261.41
2023-03-26T13:29:14.718Z,99255.06
2023-03-26T13:32:18.173Z,99249.66
2023-03-26T13:35:10.588Z,99252.34
2023-03-26T13:37:55.269Z,99253.25
2023-03-26T13:40:42.311Z,99248.03
2023-03-26T13:43:17.882Z,99251.09
2023-03-26T13:45:53.397Z,99250.22
2023-03-26T13:48:26.472Z,99247.31
2023-03-26T13:51:17.239Z,99247.66
2023-03-26T13:53:52.105Z,99240.97
2023-03-26T13:56:20.575Z,99241.44
2023-03-26T13:58:53.070Z,99251.94
2023-03-26T14:01:22.477Z,99246.88
2023-03-26T14:03:55.862Z,99244.47
2023-03-26T14:07:15.763Z,99251.19
2023-03-26T14:10:08.463Z,99258.38
2023-03-26T14:12:43.273Z,99257.84
2023-03-26T14:15:24.221Z,99247.97
2023-03-26T14:18:03.140Z,99260.50
2023-03-26T14:21:04.838Z,99255.97
2023-03-26T14:23:43.219Z,99257.38
2023-03-26T14:26:19.470Z,99261.19
2023-03-26T14:28:54.923Z,99260.59
2023-03-26T14:31:47.775Z,99265.47
2023-03-26T14:34:45.653Z,99268.25
2023-03-26T14:37:42.616Z,99271.63
2023-03-26T14:40:30.802Z,99265.66
2023-03-26T14:43:09.373Z,99270.66
2023-03-26T14:46:03.141Z,99275.75
2023-03-26T14:48:53.918Z,99272.06
2023-03-26T14:52:01.629Z,99278.56
2023-03-26T14:54:32.088Z,99274.50
2023-03-26T14:57:29.330Z,99271.75
2023-03-26T15:00:20.063Z,99281.47
2023-03-26T15:03:24.864Z,99278.03
2023-03-26T15:06:11.653Z,99283.47
2023-03-26T15:09:10.458Z,99284.47
2023-03-26T15:12:14.510Z,99293.47
2023-03-26T15:14:56.522Z,99296.03
2023-03-26T15:17:31.936Z,99293.06
2023-03-26T15:20:34.925Z,99288.25
2023-03-26T15:23:25.826Z,99290.03
2023-03-26T15:26:27.957Z,99302.59
2023-03-26T15:29:21.716Z,99304.03
2023-03-26T15:32:19.692Z,99303.63
2023-03-26T15:35:16.564Z,99307.03
2023-03-26T15:37:57.170Z,99308.53
2023-03-26T15:40:47.617Z,99309.03
2023-03-26T15:43:16.586Z,99301.63
2023-03-26T15:45:49.180Z,99310.84
2023-03-26T15:48:34.231Z,99306.41
2023-03-26T15:51:31.886Z,99309.63
2023-03-26T15:54:21.907Z,99313.63
2023-03-26T15:56:54.302Z,99322.63
2023-03-26T15:59:20.558Z,99319.44
2023-03-26T16:02:00.393Z,99325.63
2023-03-26T16:04:51.800Z,99324.03
2023-03-26T16:08:09.745Z,99321.03
2023-03-26T16:10:55.762Z,99325.81
2023-03-26T16:13:22.185Z,99324.44
2023-03-26T16:16:20.055Z,99334.41
2023-03-26T16:19:18.524Z,99336.00
2023-03-26T16:22:07.344Z,99340.00
2023-03-26T16:24:36.522Z,99340.63
2023-03-26T16:27:15.009Z,99348.22
2023-03-26T16:30:00.018Z,99347.69
2023-03-26T16:32:34.597Z,99349.53
2023-03-26T16:35:34.816Z,99346.28
2023-03-26T16:38:13.585Z,99355.75
2023-03-26T16:40:58.314Z,99363.34
2023-03-26T16:43:38.343Z,99359.53
2023-03-26T16:46:42.445Z,99364.44
2023-03-26T16:50:08.469Z,99365.53
2023-03-26T16:52:49.992Z,99375.50
2023-03-26T16:55:27.932Z,99370.50
2023-03-26T16:58:29.292Z,99374.28
2023-03-26T17:01:11.852Z,99392.66
2023-03-26T17:03:50.983Z,99397.25
2023-03-26T17:06:17.432Z,99395.44
2023-03-26T17:08:58.371Z,99403.81
2023-03-26T17:11:56.562Z,99404.63
2023-03-26T17:14:44.346Z,99406.13
2023-03-26T17:17:25.678Z,99399.22
2023-03-26T17:20:07.385Z,99407.97
2023-03-26T17:22:43.603Z,99418.16
2023-03-26T17:25:34.544Z,99419.75
2023-03-26T17:28:28.424Z,99431.66
2023-03-26T17:31:18.337Z,99430.03
2023-03-26T17:33:45.088Z,99444.81
2023-03-26T17:36:11.465Z,99448.91
2023-03-26T17:38:37.760Z,99452.81
2023-03-26T17:41:05.461Z,99441.53
2023-03-26T17:43:48.356Z,99468.16
2023-03-26T17:46:32.211Z,99477.78
2023-03-26T17:49:07.519Z,99478.16
2023-03-26T17:51:57.938Z,99476.03
2023-03-26T17:54:30.865Z,99487.03
2023-03-26T17:57:03.584Z,99491.72
2023-03-26T17:59:32.404Z,99491.50
2023-03-26T18:02:02.684Z,99501.72
2023-03-26T18:04:42.130Z,99503.66
2023-03-26T18:07:46.078Z,99510.03
2023-03-26T18:10:43.545Z,99506.38
2023-03-26T18:13:26.881Z,99521.41
2023-03-26T18:16:16.467Z,99528.69
2023-03-26T18:18:50.778Z,99533.91
2023-03-26T18:21:27.813Z,99537.13
2023-03-26T18:23:54.201Z,99542.53
2023-03-26T18:26:36.168Z,99556.22
2023-03-26T18:29:16.338Z,99565.31
2023-03-26T18:31:43.446Z,99552.75
2023-03-26T18:34:17.904Z,99557.81
2023-03-26T18:36:57.433Z,99565.31
2023-03-26T18:39:23.880Z,99576.28
2023-03-26T18:41:50.335Z,99577.22
2023-03-26T18:44:18.571Z,99578.44
2023-03-26T18:46:45.708Z,99576.66
2023-03-26T18:49:14.595Z,99592.06
2023-03-26T18:51:54.162Z,99595.88
2023-03-26T18:54:23.803Z,99603.97
2023-03-26T18:56:50.329Z,99607.50
2023-03-26T18:59:34.260Z,99613.69
2023-03-26T19:02:10.119Z,99620.19
2023-03-26T19:04:36.723Z,99608.69
2023-03-26T19:07:08.624Z,99619.44
2023-03-26T19:09:35.280Z,99622.97
2023-03-26T19:12:07.989Z,99629.44
2023-03-26T19:14:50.182Z,99617.13
2023-03-26T19:17:16.658Z,99635.66
2023-03-26T19:19:43.143Z,99634.31
2023-03-26T19:22:11.152Z,99645.88
2023-03-26T19:24:38.158Z,99652.56
2023-03-26T19:27:04.737Z,99665.19
2023-03-26T19:29:35.740Z,99674.34
2023-03-26T19:32:35.637Z,99669.50
2023-03-26T19:35:01.995Z,99679.44
2023-03-26T19:37:29.275Z,99681.88
2023-03-26T19:40:02.759Z,99684.03
2023-03-26T19:42:44.031Z,99677.84
2023-03-26T19:45:17.958Z,99691.81
2023-03-26T19:47:52.166Z,99703.06
2023-03-26T19:50:27.439Z,99700.38
2023-03-26T19:53:16.853Z,99686.97
2023-03-26T19:55:59.310Z,99706.81
2023-03-26T19:58:27.175Z,99705.72
2023-03-26T20:00:53.695Z,99715.38
2023-03-26T20:03:40.389Z,99721.81
2023-03-26T20:06:10.162Z,99726.09
2023-03-26T20:08:36.464Z,99729.84
2023-03-26T20:11:02.818Z,99726.34
2023-03-26T20:13:29.141Z,99727.94
2023-03-26T20:16:06.596Z,99738.94
2023-03-26T20:18:34.435Z,99743.22
2023-03-26T20:21:00.962Z,99744.03
2023-03-26T20:23:27.295Z,99750.72
2023-03-26T20:25:53.717Z,99759.00
2023-03-26T20:28:20.526Z,99751.22
2023-03-26T20:30:48.536Z,99757.66
2023-03-26T20:33:23.970Z,99760.06
2023-03-26T20:35:50.296Z,99762.75
2023-03-26T20:38:18.205Z,99771.03
2023-03-26T20:40:44.701Z,99765.09
2023-03-26T20:43:13.151Z,99775.31
2023-03-26T20:45:40.093Z,99780.91
2023-03-26T20:48:06.718Z,99787.59
2023-03-26T20:50:35.811Z,99787.03
2023-03-26T20:53:02.389Z,99791.34
2023-03-26T20:55:28.902Z,99794.56
2023-03-26T20:57:55.212Z,99794.81
2023-03-26T21:00:21.722Z,99796.69
2023-03-26T21:02:49.655Z,99806.31
2023-03-26T21:05:16.121Z,99801.72
2023-03-26T21:07:42.772Z,99804.69
2023-03-26T21:10:13.727Z,99814.28
2023-03-26T21:12:51.252Z,99815.38
2023-03-26T21:15:23.540Z,99818.56
2023-03-26T21:17:51.243Z,99819.66
2023-03-26T21:20:18.957Z,99825.00
2023-03-26T21:23:10.065Z,99819.09
2023-03-26T21:25:48.229Z,99829.81
2023-03-26T21:28:41.913Z,99828.72
2023-03-26T21:31:14.632Z,99835.69
2023-03-26T21:33:41.026Z,99837.00
2023-03-26T21:36:08.050Z,99847.19
2023-03-26T21:38:34.691Z,99838.34
2023-03-26T21:41:01.713Z,99846.91
2023-03-26T21:43:28.175Z,99851.19
2023-03-26T21:45:55.184Z,99859.72
2023-03-26T21:48:21.852Z,99853.84
2023-03-26T21:50:48.405Z,99860.50
2023-03-26T21:53:16.010Z,99863.16
2023-03-26T21:56:16.510Z,99867.47
2023-03-26T21:59:09.969Z,99866.91
2023-03-26T22:01:55.105Z,99877.63
2023-03-26T22:04:21.328Z,99879.75
2023-03-26T22:06:56.692Z,99892.34
2023-03-26T22:09:33.953Z,99889.09
2023-03-26T22:12:02.541Z,99891.72
2023-03-26T22:14:28.910Z,99899.22
2023-03-26T22:16:55.413Z,99908.00
2023-03-26T22:19:21.732Z,99909.31
2023-03-26T22:21:48.178Z,99913.88
2023-03-26T22:24:14.473Z,99920.53
2023-03-26T22:26:40.905Z,99928.56
2023-03-26T22:29:07.290Z,99929.09
2023-03-26T22:31:33.691Z,99928.53
2023-03-26T22:34:00.116Z,99930.09
2023-03-26T22:36:26.464Z,99934.09
2023-03-26T22:38:53.448Z,99936.69
2023-03-26T22:41:19.805Z,99943.38
2023-03-26T22:43:46.117Z,99938.50
2023-03-26T22:46:12.447Z,99956.22
2023-03-26T22:48:38.749Z,99959.38
2023-03-26T22:51:07.401Z,99963.66
2023-03-26T22:53:34.752Z,99958.81
2023-03-26T22:56:01.384Z,99968.72
2023-03-26T22:58:28.176Z,99973.50
2023-03-26T23:01:09.248Z,99977.50
2023-03-26T23:03:36.301Z,99975.09
2023-03-26T23:06:06.726Z,99985.22
2023-03-26T23:08:34.843Z,99977.38
2023-03-26T23:11:01.648Z,99987.31
2023-03-26T23:13:28.005Z,99999.41
2023-03-26T23:15:55.757Z,100000.47
2023-03-26T23:18:23.583Z,100005.25
2023-03-26T23:20:57.395Z,100014.03
2023-03-26T23:23:26.710Z,100021.00
2023-03-26T23:25:56.992Z,100023.41
2023-03-26T23:28:23.323Z,100029.25
2023-03-26T23:30:51.401Z,100028.72
2023-03-26T23:33:21.786Z,100034.06
2023-03-26T23:35:49.826Z,100041.28
2023-03-26T23:38:16.679Z,100049.56
2023-03-26T23:40:44.428Z,100052.53
2023-03-26T23:43:25.081Z,100055.72
2023-03-26T23:45:52.161Z,100054.34
2023-03-26T23:48:21.144Z,100062.84
2023-03-26T23:50:48.724Z,100058.81
2023-03-26T23:53:15.151Z,100074.53
2023-03-26T23:55:41.464Z,100074.84
2023-03-26T23:58:07.791Z,100090.59
